createdAt,value
2022-11-05T00:01:55.092Z,11.55
2022-11-05T00:04:40.413Z,10.55
2022-11-05T00:07:36.993Z,10.30
2022-11-05T00:10:16.412Z,9.80
2022-11-05T00:13:01.745Z,11.15
2022-11-05T00:15:47.177Z,9.38
2022-11-05T00:18:13.824Z,9.93
2022-11-05T00:20:40.498Z,10.25
2022-11-05T00:23:26.074Z,9.25
2022-11-05T00:26:06.437Z,9.13
2022-11-05T00:28:33.370Z,9.02
2022-11-05T00:31:01.303Z,9.35
2022-11-05T00:33:28.013Z,10.57
2022-11-05T00:35:54.739Z,7.55
2022-11-05T00:38:21.493Z,8.20
2022-11-05T00:40:48.238Z,8.05
2022-11-05T00:43:33.409Z,8.13
2022-11-05T00:46:00.072Z,9.07
2022-11-05T00:48:45.258Z,7.75
2022-11-05T00:51:11.909Z,8.13
2022-11-05T00:53:38.585Z,8.05
2022-11-05T00:56:05.429Z,7.43
2022-11-05T00:58:32.107Z,8.93
2022-11-05T01:00:59.573Z,8.15
2022-11-05T01:03:28.093Z,8.63
2022-11-05T01:05:57.229Z,8.85
2022-11-05T01:08:25.044Z,7.88
2022-11-05T01:10:53.364Z,7.20
2022-11-05T01:13:21.436Z,8.18
2022-11-05T01:15:48.488Z,6.90
2022-11-05T01:18:15.227Z,7.53
2022-11-05T01:20:41.952Z,8.00
2022-11-05T01:23:13.284Z,7.30
2022-11-05T01:25:41.064Z,7.85
2022-11-05T01:28:09.514Z,7.68
2022-11-05T01:30:37.604Z,8.25
2022-11-05T01:33:04.452Z,7.70
2022-11-05T01:35:31.302Z,8.20
2022-11-05T01:37:57.984Z,6.35
2022-11-05T01:40:24.887Z,7.43
2022-11-05T01:42:51.651Z,8.13
2022-11-05T01:45:26.013Z,6.47
2022-11-05T01:47:56.234Z,6.85
2022-11-05T01:50:31.112Z,7.90
2022-11-05T01:53:12.447Z,5.93
2022-11-05T01:55:43.269Z,7.00
2022-11-05T01:58:11.547Z,6.20
2022-11-05T02:00:38.275Z,6.60
2022-11-05T02:03:05.166Z,6.13
2022-11-05T02:05:31.918Z,5.97
2022-11-05T02:07:58.603Z,5.97
2022-11-05T02:10:25.713Z,5.88
2022-11-05T02:12:52.550Z,4.80
2022-11-05T02:15:45.755Z,5.15
2022-11-05T02:18:24.806Z,5.35
2022-11-05T02:21:20.662Z,4.65
2022-11-05T02:24:18.187Z,4.60
2022-11-05T02:27:03.632Z,5.43
2022-11-05T02:29:42.631Z,4.65
2022-11-05T02:32:31.082Z,5.10
2022-11-05T02:35:22.860Z,5.05
2022-11-05T02:37:52.043Z,3.95
2022-11-05T02:40:57.170Z,4.93
2022-11-05T02:46:01.080Z,3.40
2022-11-05T02:48:36.420Z,5.40
2022-11-05T02:51:29.731Z,3.65
2022-11-05T02:54:05.842Z,4.10
2022-11-05T02:56:34.076Z,4.35
2022-11-05T02:59:00.743Z,4.40
2022-11-05T03:01:27.626Z,3.55
2022-11-05T03:04:00.721Z,4.20
2022-11-05T03:06:31.726Z,4.47
2022-11-05T03:09:05.186Z,3.30
2022-11-05T03:11:34.136Z,4.90
2022-11-05T03:14:07.205Z,4.47
2022-11-05T03:16:45.786Z,3.63
2022-11-05T03:19:31.178Z,3.50
2022-11-05T03:22:43.078Z,4.55
2022-11-05T03:25:15.144Z,4.65
2022-11-05T03:27:44.905Z,3.95
2022-11-05T03:30:13.791Z,3.58
2022-11-05T03:32:46.739Z,3.47
2022-11-05T03:35:24.372Z,3.47
2022-11-05T03:37:52.757Z,4.88
2022-11-05T03:40:19.628Z,4.82
2022-11-05T03:42:48.242Z,4.78
2022-11-05T03:45:17.412Z,5.22
2022-11-05T03:47:45.649Z,4.60
2022-11-05T03:50:27.651Z,4.35
2022-11-05T03:52:59.290Z,3.88
2022-11-05T03:55:30.497Z,4.75
2022-11-05T03:57:57.189Z,5.63
2022-11-05T04:00:24.071Z,3.75
2022-11-05T04:02:50.995Z,5.43
2022-11-05T04:05:18.947Z,4.70
2022-11-05T04:08:04.183Z,4.07
2022-11-05T04:10:49.420Z,4.35
2022-11-05T04:13:25.355Z,3.78
2022-11-05T04:16:14.418Z,3.50
2022-11-05T04:18:41.209Z,3.47
2022-11-05T04:21:26.911Z,4.07
2022-11-05T04:24:08.939Z,2.95
2022-11-05T04:26:40.230Z,3.58
2022-11-05T04:29:26.110Z,4.38
2022-11-05T04:31:52.804Z,3.15
2022-11-05T04:34:21.882Z,4.43
2022-11-05T04:36:49.812Z,3.38
2022-11-05T04:39:17.995Z,3.00
2022-11-05T04:41:46.237Z,3.63
2022-11-05T04:44:12.975Z,3.95
2022-11-05T04:46:39.930Z,3.10
2022-11-05T04:49:06.672Z,2.80
2022-11-05T04:51:33.427Z,2.50
2022-11-05T04:54:00.327Z,3.15
2022-11-05T04:56:27.114Z,3.20
2022-11-05T04:58:53.799Z,3.17
2022-11-05T05:01:21.926Z,3.88
2022-11-05T05:03:52.202Z,3.08
2022-11-05T05:06:19.062Z,2.75
2022-11-05T05:08:47.510Z,2.67
2022-11-05T05:11:15.246Z,2.75
2022-11-05T05:13:41.962Z,2.53
2022-11-05T05:16:09.977Z,2.75
2022-11-05T05:18:38.144Z,3.28
2022-11-05T05:21:27.493Z,2.92
2022-11-05T05:23:54.371Z,3.17
2022-11-05T05:26:21.122Z,2.80
2022-11-05T05:28:47.797Z,2.50
2022-11-05T05:31:15.108Z,3.10
2022-11-05T05:33:41.855Z,2.83
2022-11-05T05:36:11.445Z,2.70
2022-11-05T05:38:38.519Z,2.63
2022-11-05T05:41:05.420Z,2.90
2022-11-05T05:43:32.604Z,2.63
2022-11-05T05:46:06.211Z,3.25
2022-11-05T05:48:33.061Z,3.30
2022-11-05T05:51:04.200Z,3.42
2022-11-05T05:53:31.237Z,3.38
2022-11-05T05:55:58.186Z,2.65
2022-11-05T05:58:28.879Z,3.72
2022-11-05T06:00:55.633Z,2.92
2022-11-05T06:03:22.368Z,2.42
2022-11-05T06:05:49.088Z,2.83
2022-11-05T06:08:18.643Z,1.98
2022-11-05T06:10:51.959Z,2.38
2022-11-05T06:13:18.743Z,2.47
2022-11-05T06:15:45.633Z,2.20
2022-11-05T06:18:12.461Z,2.15
2022-11-05T06:20:40.212Z,2.28
2022-11-05T06:23:06.947Z,2.13
2022-11-05T06:25:37.189Z,2.80
2022-11-05T06:30:34.281Z,2.75
2022-11-05T06:33:06.973Z,3.40
2022-11-05T06:35:33.706Z,2.10
2022-11-05T06:38:02.665Z,1.90
2022-11-05T06:40:29.571Z,2.10
2022-11-05T06:42:56.296Z,2.42
2022-11-05T06:45:23.079Z,2.05
2022-11-05T06:47:55.967Z,1.45
2022-11-05T06:50:23.278Z,2.05
2022-11-05T06:52:57.193Z,2.47
2022-11-05T06:55:24.574Z,2.10
2022-11-05T06:57:51.361Z,2.03
2022-11-05T07:00:18.620Z,2.13
2022-11-05T07:02:45.767Z,2.03
2022-11-05T07:05:13.304Z,1.80
2022-11-05T07:07:43.621Z,2.15
2022-11-05T07:10:12.886Z,2.97
2022-11-05T07:12:39.648Z,2.10
2022-11-05T07:15:07.214Z,1.60
2022-11-05T07:17:34.068Z,2.08
2022-11-05T07:20:01.296Z,1.52
2022-11-05T07:22:28.046Z,1.48
2022-11-05T07:24:54.782Z,0.98
2022-11-05T07:27:21.733Z,1.58
2022-11-05T07:29:48.502Z,1.88
2022-11-05T07:32:15.201Z,1.77
2022-11-05T07:34:41.950Z,1.30
2022-11-05T07:37:09.166Z,1.50
2022-11-05T07:39:35.952Z,1.73
2022-11-05T07:42:02.732Z,1.27
2022-11-05T07:44:29.526Z,2.13
2022-11-05T07:46:56.306Z,1.30
2022-11-05T07:49:23.893Z,1.95
2022-11-05T07:51:50.707Z,2.20
2022-11-05T07:54:17.478Z,2.05
2022-11-05T07:56:46.460Z,1.38
2022-11-05T07:59:14.823Z,1.35
2022-11-05T08:01:41.815Z,1.58
2022-11-05T08:04:09.091Z,1.88
2022-11-05T08:06:36.256Z,1.70
2022-11-05T08:09:03.129Z,1.90
2022-11-05T08:11:29.887Z,1.70
2022-11-05T08:13:58.930Z,1.73
2022-11-05T08:16:25.917Z,1.65
2022-11-05T08:18:52.653Z,2.10
2022-11-05T08:21:19.345Z,1.65
2022-11-05T08:23:46.871Z,1.77
2022-11-05T08:26:13.704Z,1.88
2022-11-05T08:28:40.430Z,1.40
2022-11-05T08:31:09.676Z,1.50
2022-11-05T08:33:36.961Z,1.58
2022-11-05T08:36:06.439Z,1.52
2022-11-05T08:38:33.220Z,1.40
2022-11-05T08:41:01.458Z,1.80
2022-11-05T08:43:28.193Z,2.55
2022-11-05T08:45:56.157Z,1.45
2022-11-05T08:48:22.880Z,1.40
2022-11-05T08:50:50.802Z,1.05
2022-11-05T08:53:17.646Z,1.50
2022-11-05T08:55:44.573Z,1.15
2022-11-05T08:58:17.656Z,1.77
2022-11-05T09:00:45.868Z,1.17
2022-11-05T09:03:13.058Z,1.08
2022-11-05T09:05:40.568Z,1.70
2022-11-05T09:08:08.336Z,1.50
2022-11-05T09:10:35.168Z,1.30
2022-11-05T09:13:02.232Z,2.08
2022-11-05T09:15:29.395Z,1.60
2022-11-05T09:17:56.430Z,2.10
2022-11-05T09:20:24.846Z,2.08
2022-11-05T09:22:52.528Z,2.40
2022-11-05T09:25:19.463Z,1.60
2022-11-05T09:27:48.162Z,1.20
2022-11-05T09:30:15.051Z,2.03
2022-11-05T09:32:41.973Z,1.95
2022-11-05T09:35:09.227Z,1.48
2022-11-05T09:37:39.121Z,1.58
2022-11-05T09:40:08.343Z,1.40
2022-11-05T09:42:39.903Z,1.55
2022-11-05T09:45:25.293Z,1.23
2022-11-05T09:47:53.844Z,1.63
2022-11-05T09:50:24.929Z,1.58
2022-11-05T09:52:51.627Z,2.35
2022-11-05T09:55:26.947Z,3.03
2022-11-05T09:57:57.006Z,2.70
2022-11-05T10:00:23.877Z,2.72
2022-11-05T10:03:05.658Z,1.33
2022-11-05T10:05:32.698Z,1.83
2022-11-05T10:08:01.808Z,2.22
2022-11-05T10:10:46.649Z,2.83
2022-11-05T10:13:45.695Z,2.08
2022-11-05T10:16:25.984Z,1.88
2022-11-05T10:18:58.560Z,1.73
2022-11-05T10:21:51.296Z,2.13
2022-11-05T10:24:19.803Z,2.00
2022-11-05T10:26:50.931Z,2.15
2022-11-05T10:29:26.006Z,2.63
2022-11-05T10:31:53.708Z,2.47
2022-11-05T10:34:22.461Z,2.20
2022-11-05T10:36:50.216Z,2.00
2022-11-05T10:39:18.473Z,2.35
2022-11-05T10:42:11.759Z,1.83
2022-11-05T10:45:01.420Z,1.50
2022-11-05T10:47:34.362Z,1.83
2022-11-05T10:50:21.733Z,1.85
2022-11-05T10:52:58.401Z,1.58
2022-11-05T10:55:35.840Z,1.30
2022-11-05T10:58:18.423Z,1.70
2022-11-05T11:01:06.478Z,1.98
2022-11-05T11:03:51.253Z,1.50
2022-11-05T11:06:18.497Z,1.60
2022-11-05T11:08:46.277Z,1.60
2022-11-05T11:11:24.497Z,1.80
2022-11-05T11:14:02.707Z,1.88
2022-11-05T11:16:34.385Z,1.95
2022-11-05T11:19:03.039Z,1.90
2022-11-05T11:21:31.027Z,2.45
2022-11-05T11:24:06.938Z,1.90
2022-11-05T11:26:36.231Z,1.95
2022-11-05T11:29:07.358Z,1.90
2022-11-05T11:31:37.065Z,3.00
2022-11-05T11:34:06.007Z,2.45
2022-11-05T11:36:44.533Z,1.90
2022-11-05T11:39:17.289Z,2.05
2022-11-05T11:41:44.360Z,2.00
2022-11-05T11:44:13.399Z,2.22
2022-11-05T11:46:40.270Z,1.77
2022-11-05T11:49:07.248Z,2.13
2022-11-05T11:51:40.804Z,4.47
2022-11-05T11:54:19.247Z,2.13
2022-11-05T11:56:46.974Z,2.40
2022-11-05T12:00:07.100Z,2.35
2022-11-05T12:02:41.962Z,2.83
2022-11-05T12:05:15.092Z,2.45
2022-11-05T12:07:48.357Z,2.23
2022-11-05T12:10:21.688Z,2.28
2022-11-05T12:13:20.448Z,2.42
2022-11-05T12:15:56.842Z,1.95
2022-11-05T12:18:42.144Z,3.13
2022-11-05T12:21:52.190Z,2.60
2022-11-05T12:24:32.741Z,2.40
2022-11-05T12:27:13.487Z,2.40
2022-11-05T12:30:03.947Z,2.70
2022-11-05T12:33:11.435Z,2.45
2022-11-05T12:35:48.991Z,2.50
2022-11-05T12:38:59.013Z,3.30
2022-11-05T12:41:45.771Z,2.95
2022-11-05T12:44:37.076Z,2.65
2022-11-05T12:47:25.671Z,3.00
2022-11-05T12:50:04.610Z,2.13
2022-11-05T12:52:49.900Z,2.83
2022-11-05T12:55:23.066Z,2.80
2022-11-05T12:57:52.074Z,2.80
2022-11-05T13:00:25.391Z,4.10
2022-11-05T13:03:21.522Z,3.80
2022-11-05T13:05:48.402Z,3.30
2022-11-05T13:08:18.887Z,2.42
2022-11-05T13:11:11.584Z,2.58
2022-11-05T13:13:51.330Z,2.85
2022-11-05T13:16:41.634Z,2.90
2022-11-05T13:19:36.888Z,2.13
2022-11-05T13:22:09.773Z,3.55
2022-11-05T13:24:45.043Z,4.05
2022-11-05T13:27:42.693Z,1.77
2022-11-05T13:30:15.010Z,1.95
2022-11-05T13:32:43.766Z,2.22
2022-11-05T13:35:20.560Z,2.40
2022-11-05T13:38:07.508Z,2.70
2022-11-05T13:40:55.702Z,1.90
2022-11-05T13:43:39.541Z,2.85
2022-11-05T13:46:10.198Z,2.55
2022-11-05T13:49:19.688Z,1.92
2022-11-05T13:52:05.291Z,2.47
2022-11-05T13:55:05.059Z,2.60
2022-11-05T13:57:38.050Z,2.88
2022-11-05T14:00:18.284Z,3.25
2022-11-05T14:03:05.209Z,2.67
2022-11-05T14:05:32.067Z,3.08
2022-11-05T14:08:00.298Z,2.75
2022-11-05T14:10:38.167Z,2.70
2022-11-05T14:13:22.462Z,2.38
2022-11-05T14:18:42.291Z,2.58
2022-11-05T14:21:27.768Z,2.25
2022-11-05T14:23:57.554Z,2.38
2022-11-05T14:26:26.031Z,2.55
2022-11-05T14:28:58.720Z,2.20
2022-11-05T14:32:07.329Z,1.95
2022-11-05T14:35:04.050Z,4.30
2022-11-05T14:38:00.974Z,4.07
2022-11-05T14:40:27.874Z,3.42
2022-11-05T14:42:56.347Z,3.75
2022-11-05T14:45:38.870Z,2.47
2022-11-05T14:48:07.292Z,2.33
2022-11-05T14:50:35.752Z,2.38
2022-11-05T14:53:27.389Z,2.05
2022-11-05T14:56:06.105Z,2.13
2022-11-05T14:58:35.647Z,2.72
2022-11-05T15:01:29.903Z,3.58
2022-11-05T15:04:01.890Z,3.22
2022-11-05T15:06:31.185Z,2.85
2022-11-05T15:09:05.558Z,2.20
2022-11-05T15:11:41.086Z,2.78
2022-11-05T15:14:21.770Z,2.42
2022-11-05T15:16:51.874Z,2.17
2022-11-05T15:19:21.750Z,2.00
2022-11-05T15:21:48.750Z,1.60
2022-11-05T15:24:16.227Z,3.15
2022-11-05T15:27:07.845Z,3.10
2022-11-05T15:29:34.832Z,1.67
2022-11-05T15:32:01.636Z,1.65
2022-11-05T15:34:35.688Z,2.00
2022-11-05T15:37:19.719Z,2.15
2022-11-05T15:39:47.692Z,3.38
2022-11-05T15:42:24.622Z,2.97
2022-11-05T15:44:55.798Z,3.08
2022-11-05T15:47:30.072Z,3.03
2022-11-05T15:49:58.551Z,3.67
2022-11-05T15:52:36.671Z,3.30
2022-11-05T15:55:12.837Z,2.47
2022-11-05T15:57:50.711Z,3.20
2022-11-05T16:00:32.066Z,2.13
2022-11-05T16:03:05.763Z,2.92
2022-11-05T16:05:34.824Z,1.80
2022-11-05T16:08:02.043Z,2.17
2022-11-05T16:10:35.312Z,2.03
2022-11-05T16:13:30.173Z,1.85
2022-11-05T16:15:58.752Z,2.30
2022-11-05T16:18:30.400Z,2.47
2022-11-05T16:21:05.061Z,1.73
2022-11-05T16:23:54.173Z,1.73
2022-11-05T16:29:40.312Z,2.05
2022-11-05T16:32:17.398Z,1.88
2022-11-05T16:34:49.311Z,3.80
2022-11-05T16:37:17.424Z,1.80
2022-11-05T16:39:44.192Z,2.03
2022-11-05T16:42:24.959Z,1.58
2022-11-05T16:44:52.837Z,2.53
2022-11-05T16:47:20.054Z,1.77
2022-11-05T16:49:48.057Z,2.08
2022-11-05T16:52:14.971Z,1.65
2022-11-05T16:54:41.837Z,1.75
2022-11-05T16:57:19.695Z,1.50
2022-11-05T16:59:46.463Z,1.30
2022-11-05T17:02:13.289Z,1.45
2022-11-05T17:04:42.227Z,1.85
2022-11-05T17:07:08.933Z,1.20
2022-11-05T17:09:35.760Z,1.50
2022-11-05T17:12:02.834Z,1.98
2022-11-05T17:14:29.571Z,1.48
2022-11-05T17:16:56.278Z,0.98
2022-11-05T17:19:23.261Z,1.83
2022-11-05T17:21:50.184Z,1.30
2022-11-05T17:24:16.964Z,9.68
2022-11-05T17:26:43.713Z,2.72
2022-11-05T17:29:10.458Z,1.67
2022-11-05T17:31:38.889Z,1.58
2022-11-05T17:34:05.711Z,1.45
2022-11-05T17:36:32.398Z,1.60
2022-11-05T17:38:59.236Z,1.73
2022-11-05T17:41:26.067Z,1.08
2022-11-05T17:43:56.428Z,1.20
2022-11-05T17:46:24.230Z,1.27
2022-11-05T17:48:51.150Z,1.30
2022-11-05T17:51:18.611Z,2.00
2022-11-05T17:53:46.609Z,1.63
2022-11-05T17:56:18.369Z,2.03
2022-11-05T17:58:49.087Z,1.85
2022-11-05T18:01:27.761Z,2.10
2022-11-05T18:03:54.841Z,1.40
2022-11-05T18:06:21.608Z,2.42
2022-11-05T18:08:48.432Z,2.38
2022-11-05T18:11:15.157Z,2.85
2022-11-05T18:13:41.875Z,3.65
2022-11-05T18:16:08.816Z,3.08
2022-11-05T18:18:35.523Z,2.80
2022-11-05T18:21:06.217Z,3.15
2022-11-05T18:23:32.989Z,3.00
2022-11-05T18:25:59.880Z,4.03
2022-11-05T18:28:29.861Z,4.18
2022-11-05T18:30:56.592Z,4.15
2022-11-05T18:33:23.275Z,3.72
2022-11-05T18:35:49.938Z,3.13
2022-11-05T18:38:16.709Z,2.60
2022-11-05T18:40:43.454Z,2.83
2022-11-05T18:43:10.513Z,2.25
2022-11-05T18:45:37.575Z,4.88
2022-11-05T18:48:04.610Z,3.17
2022-11-05T18:50:31.550Z,2.63
2022-11-05T18:52:58.576Z,4.65
2022-11-05T18:55:25.426Z,5.00
2022-11-05T18:57:52.320Z,9.43
2022-11-05T19:00:20.192Z,8.88
2022-11-05T19:02:47.123Z,7.78
2022-11-05T19:05:28.427Z,9.30
2022-11-05T19:07:55.527Z,6.75
2022-11-05T19:10:22.272Z,5.93
2022-11-05T19:12:49.257Z,8.75
2022-11-05T19:15:15.993Z,6.57
2022-11-05T19:17:42.933Z,4.82
2022-11-05T19:20:09.965Z,3.65
2022-11-05T19:22:36.684Z,3.40
2022-11-05T19:25:03.851Z,4.53
2022-11-05T19:27:30.553Z,3.83
2022-11-05T19:29:57.283Z,4.63
2022-11-05T19:32:24.510Z,4.40
2022-11-05T19:34:51.227Z,3.78
2022-11-05T19:37:19.120Z,3.95
2022-11-05T19:39:45.815Z,3.42
2022-11-05T19:42:12.647Z,2.88
2022-11-05T19:44:39.415Z,3.30
2022-11-05T19:47:06.072Z,2.97
2022-11-05T19:49:32.786Z,3.47
2022-11-05T19:51:59.515Z,3.67
2022-11-05T19:54:26.200Z,5.03
2022-11-05T19:56:54.941Z,7.60
2022-11-05T19:59:21.674Z,8.10
2022-11-05T20:01:48.702Z,9.85
2022-11-05T20:04:15.538Z,8.88
2022-11-05T20:06:42.309Z,9.88
2022-11-05T20:09:27.146Z,10.52
2022-11-05T20:11:54.789Z,13.85
2022-11-05T20:14:21.944Z,14.23
2022-11-05T20:16:48.824Z,10.35
2022-11-05T20:19:18.440Z,7.72
2022-11-05T20:21:45.342Z,7.50
2022-11-05T20:24:13.270Z,7.57
2022-11-05T20:26:41.172Z,7.55
2022-11-05T20:29:07.950Z,7.43
2022-11-05T20:31:34.639Z,6.07
2022-11-05T20:34:01.416Z,5.85
2022-11-05T20:36:28.175Z,6.30
2022-11-05T20:38:58.099Z,6.25
2022-11-05T20:41:26.009Z,5.43
2022-11-05T20:43:52.892Z,5.10
2022-11-05T20:46:20.639Z,6.05
2022-11-05T20:48:47.648Z,5.07
2022-11-05T20:51:21.606Z,5.70
2022-11-05T20:53:48.816Z,5.05
2022-11-05T20:56:20.299Z,4.75
2022-11-05T20:58:47.436Z,4.35
2022-11-05T21:01:15.626Z,4.13
2022-11-05T21:03:43.172Z,3.85
2022-11-05T21:06:10.349Z,3.97
2022-11-05T21:08:37.190Z,4.70
2022-11-05T21:11:03.992Z,3.83
2022-11-05T21:13:30.905Z,3.97
2022-11-05T21:15:58.574Z,3.92
2022-11-05T21:18:27.547Z,3.72
2022-11-05T21:20:54.411Z,3.55
2022-11-05T21:23:21.152Z,3.80
2022-11-05T21:25:48.061Z,4.57
2022-11-05T21:28:15.475Z,3.80
2022-11-05T21:30:45.539Z,4.28
2022-11-05T21:33:13.309Z,5.15
2022-11-05T21:35:44.449Z,4.35
2022-11-05T21:38:12.230Z,3.53
2022-11-05T21:40:39.398Z,4.30
2022-11-05T21:43:06.299Z,4.35
2022-11-05T21:45:33.189Z,3.10
2022-11-05T21:48:00.085Z,3.40
2022-11-05T21:50:49.760Z,3.95
2022-11-05T21:53:35.529Z,3.80
2022-11-05T21:56:25.500Z,3.85
2022-11-05T21:59:10.712Z,3.22
2022-11-05T22:01:37.548Z,4.07
2022-11-05T22:04:04.444Z,3.03
2022-11-05T22:06:33.251Z,4.10
2022-11-05T22:08:59.965Z,4.10
2022-11-05T22:11:26.709Z,3.50
2022-11-05T22:13:53.453Z,3.33
2022-11-05T22:16:20.300Z,3.83
2022-11-05T22:18:47.027Z,4.00
2022-11-05T22:21:18.201Z,3.50
2022-11-05T22:23:44.952Z,4.22
2022-11-05T22:26:11.675Z,2.60
2022-11-05T22:28:38.467Z,3.13
2022-11-05T22:31:11.091Z,2.50
2022-11-05T22:33:37.797Z,2.80
2022-11-05T22:36:04.792Z,2.72
2022-11-05T22:38:31.667Z,2.25
2022-11-05T22:40:58.396Z,2.63
2022-11-05T22:43:25.080Z,2.58
2022-11-05T22:45:51.827Z,2.67
2022-11-05T22:48:18.903Z,2.92
2022-11-05T22:50:45.634Z,2.70
2022-11-05T22:53:12.320Z,2.42
2022-11-05T22:55:39.690Z,1.73
2022-11-05T22:58:08.000Z,1.42
2022-11-05T23:00:36.746Z,1.73
2022-11-05T23:03:03.695Z,2.58
2022-11-05T23:05:30.531Z,1.58
2022-11-05T23:08:16.216Z,1.75
2022-11-05T23:11:01.546Z,1.60
2022-11-05T23:13:28.453Z,1.40
2022-11-05T23:16:13.804Z,1.02
2022-11-05T23:18:59.235Z,1.10
2022-11-05T23:21:44.330Z,1.35
2022-11-05T23:24:12.190Z,0.73
2022-11-05T23:26:51.253Z,1.10
2022-11-05T23:29:23.779Z,0.80
2022-11-05T23:32:09.146Z,0.80
2022-11-05T23:34:36.129Z,0.95
2022-11-05T23:37:22.363Z,1.13
2022-11-05T23:39:50.260Z,0.77
2022-11-05T23:42:36.023Z,0.73
2022-11-05T23:45:29.694Z,0.95
2022-11-05T23:48:15.576Z,1.15
2022-11-05T23:51:03.697Z,1.02
2022-11-05T23:53:31.644Z,0.80
2022-11-05T23:56:00.365Z,1.30
2022-11-05T23:58:27.468Z,1.33
